Euskara    
Meteorología y climatología de Navarra
Datos de la estación - Meteo Navarra

Estación de Etxarri-Aranatz GN

Altitud 505 m.


Datos desde el 08/04/2021 hasta el 09/04/2021 en horario solar
Los datos son PROVISIONALES

Anterior Página 1 de 1 Siguiente Descargar: Formato para Excel 2000 o superior   Formato csv   Formato para OpenOffice Calc
Fecha Temperatura Humedad relativa Radiación global Insolación Precipitación Vel. viento 10 m Vel. viento 10 m Dir. viento 10 m
°C % W/m² s l/m² m/s km/h °
08/04/2021 0:00 -0.6 89 0.0 0 0.0 0.8 2.9 335
08/04/2021 0:10 -0.3 89 0.0 0 0.0 1.1 3.9 53
08/04/2021 0:20 -0.2 88 0.0 0 0.0 1.0 3.4 80
08/04/2021 0:30 0.1 87 0.0 0 0.0 0.7 2.5 69
08/04/2021 0:40 0.9 84 0.0 0 0.0 1.2 4.2 70
08/04/2021 0:50 1.7 79 0.0 0 0.0 1.9 6.7 118
08/04/2021 1:00 5.4 66 0.0 0 0.0 3.1 11.3 129
08/04/2021 1:10 6.9 62 0.0 0 0.0 3.5 12.5 141
08/04/2021 1:20 7.4 60 0.0 0 0.0 3.5 12.7 136
08/04/2021 1:30 7.4 61 0.0 0 0.0 3.2 11.6 151
08/04/2021 1:40 7.3 64 0.0 0 0.0 2.3 8.3 145
08/04/2021 1:50 7.1 67 0.0 0 0.0 2.7 9.8 155
08/04/2021 2:00 7.3 68 0.0 0 0.0 3.8 13.6 147
08/04/2021 2:10 7.6 69 0.0 0 0.0 3.9 14.0 148
08/04/2021 2:20 7.5 70 0.0 0 0.0 3.8 13.7 149
08/04/2021 2:30 7.8 70 0.0 0 0.0 3.8 13.7 147
08/04/2021 2:40 7.9 69 0.0 0 0.0 3.0 10.7 136
08/04/2021 2:50 7.8 69 0.0 0 0.0 3.7 13.3 149
08/04/2021 3:00 7.8 70 0.0 0 0.0 4.2 14.9 162
08/04/2021 3:10 7.6 70 0.0 0 0.0 3.4 12.2 147
08/04/2021 3:20 7.5 71 0.0 0 0.0 3.6 12.8 167
08/04/2021 3:30 7.5 71 0.0 0 0.0 3.5 12.6 152
08/04/2021 3:40 7.5 72 0.0 0 0.0 2.7 9.7 145
08/04/2021 3:50 7.3 73 0.0 0 0.0 3.1 11.0 147
08/04/2021 4:00 7.5 73 0.0 0 0.0 2.4 8.6 136
08/04/2021 4:10 7.4 74 0.0 0 0.0 3.2 11.3 147
08/04/2021 4:20 7.6 73 0.0 0 0.0 3.6 13.0 143
08/04/2021 4:30 7.5 72 0.0 0 0.0 2.5 9.1 135
08/04/2021 4:40 7.4 72 0.0 0 0.0 2.8 10.2 147
08/04/2021 4:50 7.5 72 0.0 0 0.0 2.7 9.6 148
08/04/2021 5:00 7.4 72 0.0 0 0.0 2.1 7.5 138
08/04/2021 5:10 7.1 72 0.0 0 0.0 3.2 11.3 148
08/04/2021 5:20 7.0 72 0.0 0 0.0 3.9 13.9 138
08/04/2021 5:30 6.9 73 0.0 0 0.0 3.0 10.7 138
08/04/2021 5:40 6.6 74 0.0 0 0.0 4.2 15.1 142
08/04/2021 5:50 6.6 75 0.0 0 0.0 4.0 14.5 132
08/04/2021 6:00 6.7 74 14.7 0 0.0 5.3 18.9 142
08/04/2021 6:10 6.7 74 34.9 218 0.0 4.9 17.6 149
08/04/2021 6:20 6.9 74 64.3 600 0.0 5.6 20.2 154
08/04/2021 6:30 7.0 73 85.2 570 0.0 5.6 20.1 149
08/04/2021 6:40 7.4 72 127.5 600 0.0 6.0 21.5 150
08/04/2021 6:50 7.6 71 169.6 600 0.0 5.7 20.5 151
08/04/2021 7:00 7.9 71 220.8 600 0.0 6.1 22.0 152
08/04/2021 7:10 8.0 71 279.4 600 0.0 4.8 17.2 150
08/04/2021 7:20 8.3 70 283.3 600 0.0 5.8 21.0 150
08/04/2021 7:30 8.5 69 295.6 600 0.0 5.6 20.0 156
08/04/2021 7:40 8.9 68 364.3 600 0.0 5.2 18.5 154
08/04/2021 7:50 9.2 67 394.5 600 0.0 5.2 18.6 152
08/04/2021 8:00 9.1 67 384.8 536 0.0 6.2 22.5 156
08/04/2021 8:10 9.2 67 424.3 562 0.0 5.9 21.3 154
08/04/2021 8:20 9.7 66 475.2 572 0.0 5.9 21.2 161
08/04/2021 8:30 10.1 65 474.4 554 0.0 4.9 17.6 156
08/04/2021 8:40 9.6 66 341.4 290 0.0 5.7 20.5 146
08/04/2021 8:50 9.7 66 462.1 438 0.0 5.4 19.5 147
08/04/2021 9:00 9.9 66 504.5 510 0.0 6.7 24.1 156
08/04/2021 9:10 10.5 65 549.1 502 0.0 5.5 19.6 149
08/04/2021 9:20 10.4 64 498.1 432 0.0 6.2 22.4 147
08/04/2021 9:30 10.6 65 533.1 428 0.0 5.1 18.3 145
08/04/2021 9:40 10.6 65 602.7 484 0.0 5.6 20.0 150
08/04/2021 9:50 11.2 64 641.5 550 0.0 5.5 19.8 149
08/04/2021 10:00 12.0 63 724.5 586 0.0 4.8 17.4 152
08/04/2021 10:10 12.3 61 694.8 600 0.0 5.0 17.9 146
08/04/2021 10:20 12.0 63 648.4 578 0.0 5.3 19.2 148
08/04/2021 10:30 12.4 62 764.5 600 0.0 5.3 19.2 150
08/04/2021 10:40 12.4 62 768.6 600 0.0 5.9 21.1 155
08/04/2021 10:50 13.0 62 818.0 600 0.0 4.9 17.7 152
08/04/2021 11:00 13.6 60 822.0 600 0.0 4.8 17.3 152
08/04/2021 11:10 13.9 58 821.0 600 0.0 4.9 17.6 149
08/04/2021 11:20 13.9 59 735.5 600 0.0 4.7 17.0 158
08/04/2021 11:30 13.7 60 713.7 600 0.0 4.3 15.4 146
08/04/2021 11:40 14.0 58 779.2 600 0.0 4.4 15.9 141
08/04/2021 11:50 14.4 58 751.8 600 0.0 4.7 16.9 174
08/04/2021 12:00 15.0 57 755.8 600 0.0 4.1 14.8 163
08/04/2021 12:10 15.0 56 855.0 600 0.0 4.4 15.7 158
08/04/2021 12:20 15.8 55 799.2 600 0.0 4.9 17.7 172
08/04/2021 12:30 15.9 55 757.4 600 0.0 4.6 16.7 168
08/04/2021 12:40 15.7 55 651.9 600 0.0 5.3 19.0 173
08/04/2021 12:50 15.6 55 766.8 600 0.0 5.4 19.5 176
08/04/2021 13:00 16.3 54 845.0 600 0.0 4.8 17.2 168
08/04/2021 13:10 16.9 52 863.0 600 0.0 4.7 16.9 166
08/04/2021 13:20 17.3 51 901.0 600 0.0 4.5 16.1 161
08/04/2021 13:30 17.7 51 769.5 600 0.0 4.5 16.1 166
08/04/2021 13:40 17.3 50 564.8 598 0.0 4.4 16.0 173
08/04/2021 13:50 16.6 52 476.6 600 0.0 4.5 16.1 171
08/04/2021 14:00 16.4 53 492.3 600 0.0 5.1 18.3 164
08/04/2021 14:10 16.5 53 562.0 600 0.0 4.7 16.7 173
08/04/2021 14:20 16.8 52 471.9 600 0.0 4.6 16.4 181
08/04/2021 14:30 16.9 53 479.3 600 0.0 4.1 14.8 183
08/04/2021 14:40 17.1 52 488.6 600 0.0 4.3 15.5 174
08/04/2021 14:50 16.8 52 468.5 600 0.0 5.0 17.9 175
08/04/2021 15:00 17.0 52 498.0 600 0.0 4.9 17.8 180
08/04/2021 15:10 17.1 52 601.9 600 0.0 4.9 17.7 174
08/04/2021 15:20 18.1 50 639.5 600 0.0 5.3 19.2 175
08/04/2021 15:30 17.9 49 591.1 600 0.0 5.2 18.5 176
08/04/2021 15:40 18.3 49 535.2 600 0.0 4.1 14.8 182
08/04/2021 15:50 18.3 48 513.1 600 0.0 4.1 14.7 179
08/04/2021 16:00 18.3 49 455.9 558 0.0 4.5 16.2 175
08/04/2021 16:10 17.3 50 355.3 450 0.0 5.3 19.2 172
08/04/2021 16:20 17.6 51 377.1 600 0.0 4.0 14.3 174
08/04/2021 16:30 17.4 50 352.6 600 0.0 4.2 15.3 177
08/04/2021 16:40 17.5 50 290.7 474 0.0 4.4 15.9 169
08/04/2021 16:50 16.9 52 273.9 600 0.0 3.7 13.4 167
08/04/2021 17:00 16.9 53 252.7 600 0.0 4.0 14.4 168
08/04/2021 17:10 16.5 53 206.9 474 0.0 3.2 11.3 163
08/04/2021 17:20 16.2 54 182.1 538 0.0 3.6 13.0 161
08/04/2021 17:30 15.6 56 112.1 192 0.0 3.9 14.1 161
08/04/2021 17:40 15.0 57 54.3 0 0.0 4.5 16.1 164
08/04/2021 17:50 14.6 59 44.8 0 0.0 3.5 12.5 157
08/04/2021 18:00 14.6 58 30.1 0 0.0 3.3 11.8 145
08/04/2021 18:10 14.5 58 21.6 0 0.0 3.3 12.0 156
08/04/2021 18:20 14.6 58 24.5 0 0.0 3.8 13.8 149
08/04/2021 18:30 14.6 58 12.5 0 0.0 3.2 11.4 146
08/04/2021 18:40 14.3 59 0.0 0 0.0 2.3 8.3 112
08/04/2021 18:50 14.1 60 0.0 0 0.0 2.5 9.0 122
08/04/2021 19:00 14.3 59 0.0 0 0.0 3.2 11.3 113
08/04/2021 19:10 14.5 58 0.0 0 0.0 2.5 9.0 124
08/04/2021 19:20 14.4 58 0.0 0 0.0 1.7 5.9 113
08/04/2021 19:30 14.2 60 0.0 0 0.0 2.3 8.4 121
08/04/2021 19:40 14.2 59 0.0 0 0.0 3.0 10.7 135
08/04/2021 19:50 14.5 58 0.0 0 0.0 2.6 9.4 140
08/04/2021 20:00 14.8 57 0.0 0 0.0 4.0 14.3 137
08/04/2021 20:10 14.8 57 0.0 0 0.0 4.8 17.3 154
08/04/2021 20:20 14.7 58 0.0 0 0.0 5.1 18.4 162
08/04/2021 20:30 14.6 58 0.0 0 0.0 4.4 15.8 146
08/04/2021 20:40 14.4 61 0.0 0 0.0 4.5 16.2 157
08/04/2021 20:50 14.0 61 0.0 0 0.0 3.6 13.0 158
08/04/2021 21:00 14.0 61 0.0 0 0.0 3.4 12.3 158
08/04/2021 21:10 13.8 61 0.0 0 0.0 2.7 9.6 147
08/04/2021 21:20 13.9 60 0.0 0 0.0 3.2 11.4 143
08/04/2021 21:30 13.8 60 0.0 0 0.0 3.2 11.5 142
08/04/2021 21:40 13.6 60 0.0 0 0.0 2.9 10.3 131
08/04/2021 21:50 13.6 60 0.0 0 0.0 1.6 5.8 90
08/04/2021 22:00 13.7 60 0.0 0 0.0 3.1 11.2 130
08/04/2021 22:10 13.7 60 0.0 0 0.0 5.0 17.9 151
08/04/2021 22:20 13.6 60 0.0 0 0.0 2.5 9.1 140
08/04/2021 22:30 13.3 61 0.0 0 0.0 1.6 5.9 143
08/04/2021 22:40 13.5 60 0.0 0 0.0 1.7 6.1 351
08/04/2021 22:50 13.3 65 0.0 0 0.0 1.6 5.6 54
08/04/2021 23:00 12.3 73 0.0 0 0.0 0.9 3.2 85
08/04/2021 23:10 11.8 74 0.0 0 0.0 2.2 7.9 144
08/04/2021 23:20 11.7 73 0.0 0 0.0 4.9 17.5 147
08/04/2021 23:30 11.6 71 0.0 0 0.0 3.1 11.2 133
08/04/2021 23:40 11.6 69 0.0 0 0.0 3.5 12.7 112
08/04/2021 23:50 11.7 68 0.0 0 0.0 2.5 8.9 116
Anterior Página 1 de 1 Siguiente

NOTA: Tipo de datos según el color:
   - Valores diarios o 10 minutos correctos
   - Valores diarios calculados a partir de un número de datos 10 minutos menor que 144 y mayor que 120, o de un número de datos semihorarios menor que 48 y mayor que 40 (caso de las estaciones de INTIA Y Ministerio)
   - Valores diez minutos estimados


Contacto        Enlaces        Aviso legal